createdAt,value
2019-04-22T00:02:26.479Z,76.65
2019-04-22T00:07:01.341Z,77.02
2019-04-22T00:11:04.967Z,76.85
2019-04-22T00:15:01.901Z,76.83
2019-04-22T00:19:15.347Z,76.67
2019-04-22T00:23:15.554Z,76.51
2019-04-22T00:27:24.097Z,76.51
2019-04-22T00:31:26.713Z,76.87
2019-04-22T00:35:33.162Z,76.99
2019-04-22T00:39:44.741Z,77.22
2019-04-22T00:43:42.185Z,76.81
2019-04-22T00:47:43.640Z,77.04
2019-04-22T00:51:59.806Z,77.29
2019-04-22T01:00:11.979Z,76.67
2019-04-22T01:04:20.358Z,76.90
2019-04-22T01:08:23.439Z,76.85
2019-04-22T01:12:28.660Z,77.09
2019-04-22T01:16:29.585Z,76.86
2019-04-22T01:24:32.666Z,77.36
2019-04-22T01:28:34.265Z,77.42
2019-04-22T01:32:30.660Z,77.40
2019-04-22T01:36:51.572Z,77.60
2019-04-22T01:41:04.563Z,77.93
2019-04-22T01:44:59.577Z,77.91
2019-04-22T01:49:10.354Z,77.98
2019-04-22T01:53:28.901Z,77.92
2019-04-22T01:57:14.178Z,77.67
2019-04-22T02:01:22.390Z,77.42
2019-04-22T02:09:31.777Z,77.87
2019-04-22T02:13:37.913Z,77.62
2019-04-22T02:17:42.509Z,77.54
2019-04-22T02:21:35.709Z,77.50
2019-04-22T02:25:51.518Z,77.45
2019-04-22T02:29:47.595Z,77.78
2019-04-22T02:34:13.599Z,77.79
2019-04-22T02:38:10.334Z,77.80
2019-04-22T02:46:23.356Z,77.90
2019-04-22T02:54:38.376Z,77.63
2019-04-22T02:58:32.716Z,77.88
2019-04-22T03:02:28.514Z,77.84
2019-04-22T03:10:53.491Z,77.85
2019-04-22T03:14:37.132Z,78.04
2019-04-22T03:18:52.438Z,77.91
2019-04-22T03:22:52.056Z,77.84
2019-04-22T03:26:48.908Z,77.58
2019-04-22T03:32:17.394Z,76.87
2019-04-22T03:35:45.175Z,76.65
2019-04-22T03:40:00.024Z,76.14
2019-04-22T03:44:08.275Z,75.85
2019-04-22T03:52:05.535Z,74.91
2019-04-22T03:56:13.773Z,74.86
2019-04-22T04:00:17.804Z,74.66
2019-04-22T04:04:15.443Z,74.64
2019-04-22T04:20:32.521Z,73.98
2019-04-22T04:28:50.961Z,73.39
2019-04-22T04:36:54.951Z,72.83
2019-04-22T04:40:51.227Z,72.52
2019-04-22T04:45:10.956Z,72.36
2019-04-22T04:49:16.193Z,72.27
2019-04-22T04:57:10.523Z,71.82
2019-04-22T05:01:14.862Z,71.26
2019-04-22T05:17:43.360Z,69.26
2019-04-22T05:21:48.582Z,69.21
2019-04-22T05:25:40.879Z,68.32
2019-04-22T05:30:08.752Z,68.25
2019-04-22T05:33:56.361Z,68.72
2019-04-22T05:38:03.095Z,67.91
2019-04-22T05:42:03.404Z,67.61
2019-04-22T05:46:02.928Z,67.52
2019-04-22T05:50:10.896Z,66.68
2019-04-22T05:54:14.597Z,65.36
2019-04-22T05:58:18.810Z,64.81
2019-04-22T06:02:37.802Z,64.44
2019-04-22T06:06:27.444Z,63.11
2019-04-22T06:14:31.078Z,61.17
2019-04-22T06:18:44.858Z,60.69
2019-04-22T06:27:01.651Z,61.17
2019-04-22T06:30:57.097Z,61.34
2019-04-22T06:34:59.512Z,60.68
2019-04-22T06:39:08.497Z,59.08
2019-04-22T06:43:10.403Z,58.35
2019-04-22T06:47:21.029Z,57.72
2019-04-22T06:51:24.448Z,57.19
2019-04-22T06:55:22.974Z,56.95
2019-04-22T06:59:30.140Z,55.08
2019-04-22T07:03:41.732Z,55.36
2019-04-22T07:07:33.374Z,55.65
2019-04-22T07:11:36.727Z,55.64
2019-04-22T07:19:45.325Z,54.99
2019-04-22T07:24:02.481Z,53.14
2019-04-22T07:27:52.612Z,51.05
2019-04-22T07:32:05.015Z,50.51
2019-04-22T07:36:22.562Z,48.51
2019-04-22T07:40:02.454Z,46.00
2019-04-22T07:52:18.757Z,44.11
2019-04-22T07:56:19.019Z,43.45
2019-04-22T08:00:29.038Z,45.71
2019-04-22T08:04:50.088Z,46.29
2019-04-22T08:08:28.766Z,47.71
2019-04-22T08:12:39.179Z,47.20
2019-04-22T08:16:43.864Z,46.73
2019-04-22T08:20:50.295Z,47.98
2019-04-22T08:24:56.362Z,48.04
2019-04-22T08:28:59.358Z,47.04
2019-04-22T08:33:01.032Z,46.25
2019-04-22T08:37:35.665Z,46.69
2019-04-22T08:45:32.077Z,44.76
2019-04-22T08:49:44.294Z,45.86
2019-04-22T08:53:41.481Z,43.04
2019-04-22T08:58:06.440Z,42.48
2019-04-22T09:01:45.332Z,43.52
2019-04-22T09:06:06.412Z,42.79
2019-04-22T09:10:02.177Z,41.99
2019-04-22T09:14:24.251Z,41.24
2019-04-22T09:18:14.240Z,40.13
2019-04-22T09:22:11.263Z,40.32
2019-04-22T09:26:15.550Z,39.77
2019-04-22T09:30:30.629Z,40.69
2019-04-22T09:34:28.007Z,38.61
2019-04-22T09:38:45.112Z,38.80
2019-04-22T09:42:32.277Z,37.74
2019-04-22T09:46:39.266Z,38.44
2019-04-22T09:50:44.542Z,38.52
2019-04-22T09:54:57.857Z,38.06
2019-04-22T09:58:50.511Z,38.16
2019-04-22T10:03:00.515Z,37.70
2019-04-22T10:06:59.619Z,37.95
2019-04-22T10:11:04.603Z,37.24
2019-04-22T10:15:06.467Z,37.74
2019-04-22T10:19:20.217Z,38.79
2019-04-22T10:23:20.165Z,38.94
2019-04-22T10:27:20.880Z,38.26
2019-04-22T10:31:31.126Z,39.53
2019-04-22T10:35:17.290Z,38.79
2019-04-22T10:39:16.231Z,39.45
2019-04-22T10:43:19.233Z,38.90
2019-04-22T10:47:22.243Z,38.30
2019-04-22T10:51:26.480Z,38.89
2019-04-22T10:55:31.795Z,37.10
2019-04-22T10:59:34.430Z,37.34
2019-04-22T11:03:39.387Z,37.77
2019-04-22T11:07:49.497Z,37.41
2019-04-22T11:11:54.522Z,37.63
2019-04-22T11:15:55.028Z,37.37
2019-04-22T11:19:59.741Z,36.78
2019-04-22T11:24:02.980Z,37.29
2019-04-22T11:28:07.581Z,36.53
2019-04-22T11:32:10.583Z,36.36
2019-04-22T11:36:13.570Z,37.21
2019-04-22T11:40:24.362Z,36.91
2019-04-22T11:44:21.357Z,36.31
2019-04-22T11:48:23.824Z,36.56
2019-04-22T11:52:28.813Z,36.88
2019-04-22T11:56:31.782Z,36.67
2019-04-22T12:00:37.021Z,36.46
2019-04-22T12:04:40.174Z,37.19
2019-04-22T12:08:43.698Z,35.90
2019-04-22T12:12:48.216Z,35.72
2019-04-22T12:16:50.151Z,35.94
2019-04-22T12:20:53.110Z,36.79
2019-04-22T12:24:56.562Z,37.09
2019-04-22T12:28:59.426Z,36.09
2019-04-22T12:33:02.325Z,35.57
2019-04-22T12:37:04.907Z,36.88
2019-04-22T12:41:10.366Z,36.05
2019-04-22T12:45:12.234Z,34.99
2019-04-22T12:49:16.016Z,35.06
2019-04-22T12:53:23.520Z,34.79
2019-04-22T12:57:25.223Z,33.67
2019-04-22T13:01:28.978Z,35.79
2019-04-22T13:05:33.287Z,34.65
2019-04-22T13:09:37.299Z,35.15
2019-04-22T13:13:40.773Z,35.22
2019-04-22T13:17:44.370Z,34.83
2019-04-22T13:21:46.867Z,34.21
2019-04-22T13:25:50.201Z,34.68
2019-04-22T13:29:53.089Z,33.43
2019-04-22T13:33:59.644Z,33.54
2019-04-22T13:38:01.252Z,33.35
2019-04-22T13:46:08.107Z,32.03
2019-04-22T13:50:44.257Z,32.37
2019-04-22T13:53:53.504Z,33.00
2019-04-22T13:58:35.425Z,32.64
2019-04-22T14:02:40.190Z,33.03
2019-04-22T14:06:42.872Z,33.16
2019-04-22T14:10:45.330Z,33.71
2019-04-22T14:14:50.438Z,32.11
2019-04-22T14:18:52.001Z,31.60
2019-04-22T14:22:54.797Z,31.37
2019-04-22T14:27:13.756Z,32.39
2019-04-22T14:31:02.280Z,31.07
2019-04-22T14:35:06.976Z,32.34
2019-04-22T14:39:12.290Z,32.19
2019-04-22T14:43:40.405Z,31.41
2019-04-22T14:47:49.248Z,32.01
2019-04-22T14:51:47.045Z,33.25
2019-04-22T14:55:30.636Z,32.94
2019-04-22T14:59:32.549Z,33.93
2019-04-22T15:03:39.923Z,33.17
2019-04-22T15:07:41.243Z,33.24
2019-04-22T15:11:56.932Z,32.98
2019-04-22T15:16:25.854Z,32.18
2019-04-22T15:20:52.354Z,31.98
2019-04-22T15:24:54.463Z,32.99
2019-04-22T15:28:57.720Z,32.94
2019-04-22T15:33:01.222Z,33.08
2019-04-22T15:37:04.294Z,32.99
2019-04-22T15:41:07.777Z,31.99
2019-04-22T15:45:12.594Z,33.36
2019-04-22T15:49:16.101Z,33.78
2019-04-22T15:53:20.077Z,35.15
2019-04-22T15:57:22.642Z,35.55
2019-04-22T16:01:29.840Z,36.37
2019-04-22T16:05:30.279Z,37.21
2019-04-22T16:09:34.971Z,37.34
2019-04-22T16:13:40.132Z,37.79
2019-04-22T16:17:42.583Z,38.46
2019-04-22T16:21:51.765Z,38.50
2019-04-22T16:25:59.073Z,39.44
2019-04-22T16:30:01.513Z,39.30
2019-04-22T16:34:04.572Z,39.74
2019-04-22T16:38:07.029Z,39.80
2019-04-22T16:42:11.889Z,40.58
2019-04-22T16:46:13.851Z,40.49
2019-04-22T16:50:18.975Z,41.01
2019-04-22T16:54:22.172Z,41.47
2019-04-22T16:58:25.569Z,41.37
2019-04-22T17:02:56.121Z,42.11
2019-04-22T17:07:01.825Z,42.64
2019-04-22T17:11:04.556Z,42.95
2019-04-22T17:15:12.198Z,43.25
2019-04-22T17:19:13.370Z,43.34
2019-04-22T17:23:16.124Z,43.86
2019-04-22T17:27:20.184Z,44.10
2019-04-22T17:31:22.873Z,44.58
2019-04-22T17:35:26.194Z,45.23
2019-04-22T17:39:43.539Z,45.32
2019-04-22T17:43:59.113Z,45.99
2019-04-22T17:48:40.259Z,46.15
2019-04-22T17:52:42.593Z,46.68
2019-04-22T17:56:48.626Z,46.87
2019-04-22T18:00:47.191Z,47.40
2019-04-22T18:04:40.209Z,47.19
2019-04-22T18:08:54.924Z,47.92
2019-04-22T18:13:08.783Z,48.47
2019-04-22T18:17:11.562Z,48.29
2019-04-22T18:21:11.949Z,48.35
2019-04-22T18:25:07.744Z,50.19
2019-04-22T18:29:21.934Z,49.80
2019-04-22T18:33:27.296Z,50.39
2019-04-22T18:37:21.059Z,51.59
2019-04-22T18:41:28.906Z,52.52
2019-04-22T18:45:48.801Z,53.82
2019-04-22T18:49:39.127Z,54.08
2019-04-22T18:54:13.445Z,55.08
2019-04-22T18:58:04.208Z,56.37
2019-04-22T19:02:01.440Z,56.59
2019-04-22T19:06:29.467Z,57.13
2019-04-22T19:10:39.469Z,57.67
2019-04-22T19:14:35.335Z,57.44
2019-04-22T19:22:45.783Z,58.94
2019-04-22T19:26:50.065Z,59.58
2019-04-22T19:30:50.775Z,59.76
2019-04-22T19:34:47.876Z,59.61
2019-04-22T19:38:52.565Z,59.94
2019-04-22T19:43:04.001Z,60.74
2019-04-22T19:47:21.098Z,60.93
2019-04-22T19:51:12.826Z,61.12
2019-04-22T19:55:14.107Z,61.27
2019-04-22T19:59:11.776Z,61.14
2019-04-22T20:03:49.712Z,61.00
2019-04-22T20:07:41.817Z,61.78
2019-04-22T20:11:57.550Z,62.24
2019-04-22T20:15:50.591Z,62.08
2019-04-22T20:20:09.520Z,62.66
2019-04-22T20:23:57.382Z,62.85
2019-04-22T20:28:15.091Z,63.16
2019-04-22T20:32:20.347Z,63.38
2019-04-22T20:36:42.584Z,63.93
2019-04-22T20:40:29.807Z,65.80
2019-04-22T20:44:37.293Z,65.98
2019-04-22T20:48:41.176Z,66.64
2019-04-22T20:52:48.710Z,66.77
2019-04-22T20:56:45.120Z,66.41
2019-04-22T21:00:40.297Z,66.74
2019-04-22T21:04:43.146Z,66.78
2019-04-22T21:09:02.208Z,67.21
2019-04-22T21:13:01.768Z,67.77
2019-04-22T21:17:08.059Z,67.11
2019-04-22T21:21:13.976Z,67.06
2019-04-22T21:25:11.325Z,67.01
2019-04-22T21:29:17.312Z,67.05
2019-04-22T21:33:18.438Z,67.47
2019-04-22T21:37:33.003Z,67.04
2019-04-22T21:41:30.391Z,67.21
2019-04-22T21:45:28.123Z,66.92
2019-04-22T21:49:45.981Z,66.54
2019-04-22T21:54:00.334Z,66.39
2019-04-22T21:58:05.185Z,65.95
2019-04-22T22:02:09.997Z,66.38
2019-04-22T22:06:04.871Z,66.81
2019-04-22T22:10:09.974Z,66.79
2019-04-22T22:14:16.929Z,66.79
2019-04-22T22:18:16.562Z,67.40
2019-04-22T22:22:42.097Z,67.96
2019-04-22T22:26:38.808Z,68.28
2019-04-22T22:34:43.152Z,68.93
2019-04-22T22:38:44.628Z,69.26
2019-04-22T22:42:36.956Z,69.68
2019-04-22T22:46:43.732Z,69.95
2019-04-22T22:50:58.522Z,70.73
2019-04-22T22:55:06.951Z,71.00
2019-04-22T22:59:12.728Z,71.71
2019-04-22T23:07:22.578Z,72.55
2019-04-22T23:11:40.382Z,72.40
2019-04-22T23:15:25.249Z,72.68
2019-04-22T23:19:11.124Z,72.66
2019-04-22T23:23:36.065Z,72.73
2019-04-22T23:27:51.464Z,73.25
2019-04-22T23:31:50.361Z,73.08
2019-04-22T23:36:13.669Z,73.78
2019-04-22T23:40:32.558Z,74.08
2019-04-22T23:44:32.535Z,74.40
2019-04-22T23:48:27.976Z,74.61
2019-04-22T23:52:50.849Z,74.60
2019-04-22T23:56:47.010Z,74.41
